Time;durP1;ratioP1;P1;durP2;ratioP2;P2;SDS_P1;SDS_P2;PMS_P1;PMS_P2;Temp;Humidity;BMP_temperature;BMP_pressure;BME280_temperature;BME280_humidity;BME280_pressure;Samples;Min_cycle;Max_cycle;Signal;HPM_P1;HPM_P2
2023/06/02 00:01:36;;;;;;;8.83;2.90;;;14.80;64.80;;;17.81;45.07;101936.91;5055700;28;20193;-66
2023/06/02 00:04:03;;;;;;;6.73;3.30;;;14.80;64.90;;;17.80;45.38;101940.59;5055152;28;20228;-66
2023/06/02 00:06:33;;;;;;;7.63;2.60;;;14.80;65.10;;;17.78;45.09;101931.97;5052025;28;20539;-67
2023/06/02 00:09:03;;;;;;;9.93;3.30;;;14.80;65.10;;;17.79;45.27;101932.78;5034309;28;20622;-65
2023/06/02 00:11:34;;;;;;;7.13;2.70;;;14.80;65.30;;;17.78;45.40;101925.84;5035942;28;20209;-65
2023/06/02 00:14:03;;;;;;;9.43;2.70;;;14.80;65.40;;;17.78;45.53;101928.50;5037488;28;20183;-67
2023/06/02 00:16:41;;;;;;;12.30;3.53;;;14.80;65.50;;;17.78;45.32;101931.97;5054731;28;20624;-65
2023/06/02 00:19:11;;;;;;;11.93;3.57;;;14.80;65.50;;;17.78;45.67;101920.50;5055462;28;20255;-66
2023/06/02 00:21:40;;;;;;;10.63;3.40;;;14.80;65.60;;;17.76;45.62;101922.53;5055108;28;20221;-66
2023/06/02 00:24:07;;;;;;;9.70;3.57;;;14.80;65.60;;;17.78;45.72;101925.84;5054186;28;20194;-65
2023/06/02 00:26:35;;;;;;;6.83;2.77;;;14.80;65.80;;;17.82;45.61;101929.75;5055045;28;20288;-66
2023/06/02 00:29:02;;;;;;;9.33;3.57;;;14.80;65.90;;;17.86;45.71;101918.50;5055105;28;20210;-66
2023/06/02 00:31:29;;;;;;;9.07;3.17;;;14.90;65.70;;;17.88;45.29;101920.97;5054733;28;20217;-66
2023/06/02 00:33:58;;;;;;;9.43;3.37;;;14.90;65.70;;;17.87;45.28;101924.66;5054512;28;20198;-65
2023/06/02 00:36:25;;;;;;;9.23;3.70;;;14.90;65.60;;;17.83;45.34;101924.22;5055391;28;20511;-65
2023/06/02 00:38:52;;;;;;;11.60;3.70;;;14.80;65.50;;;17.80;45.55;101926.47;5055264;28;20190;-64
2023/06/02 00:41:19;;;;;;;9.23;3.30;;;14.90;65.60;;;17.79;45.78;101927.47;5050278;28;20194;-66
2023/06/02 00:43:46;;;;;;;8.87;3.57;;;14.80;65.80;;;17.75;45.71;101920.88;5034632;28;20281;-66
2023/06/02 00:46:13;;;;;;;8.27;2.83;;;14.80;65.90;;;17.72;45.79;101921.25;5034740;28;20218;-65
2023/06/02 00:48:40;;;;;;;9.27;3.53;;;14.70;66.10;;;17.67;45.88;101923.66;5034472;28;20617;-68
2023/06/02 00:51:09;;;;;;;9.50;3.33;;;14.70;66.20;;;17.62;46.19;101915.44;5034646;28;20277;-66
2023/06/02 00:53:37;;;;;;;14.10;4.20;;;14.70;66.60;;;17.63;46.31;101915.25;5035347;28;20230;-65
2023/06/02 00:56:05;;;;;;;8.27;3.40;;;14.60;66.80;;;17.64;46.44;101918.75;5046565;28;20232;-65
2023/06/02 00:58:37;;;;;;;9.27;3.50;;;14.60;66.90;;;17.66;46.57;101914.06;5035972;28;20533;-65
2023/06/02 01:01:08;;;;;;;9.30;3.37;;;14.60;67.00;;;17.68;46.25;101912.84;5039298;28;20190;-65
2023/06/02 01:03:36;;;;;;;11.13;3.73;;;14.60;67.00;;;17.69;46.39;101913.63;5046267;28;20185;-64
2023/06/02 01:06:07;;;;;;;8.37;3.17;;;14.70;67.00;;;17.71;46.08;101914.31;5053957;28;20241;-65
2023/06/02 01:08:39;;;;;;;9.10;3.43;;;14.70;66.90;;;17.70;45.94;101917.97;5034568;28;20210;-66
2023/06/02 01:11:07;;;;;;;12.67;3.20;;;14.70;66.80;;;17.69;46.31;101911.81;5046086;28;20285;-66
2023/06/02 01:13:35;;;;;;;8.20;3.53;;;14.70;67.00;;;17.68;46.05;101917.34;5051991;28;20193;-66
2023/06/02 01:16:02;;;;;;;7.77;3.40;;;14.70;67.00;;;17.67;46.33;101913.00;5052779;28;20260;-65
2023/06/02 01:18:35;;;;;;;9.30;3.10;;;14.60;67.00;;;17.66;46.39;101908.72;5054157;28;20273;-66
2023/06/02 01:21:05;;;;;;;11.10;4.17;;;14.60;66.90;;;17.64;46.29;101913.41;5054049;28;20186;-64
2023/06/02 01:23:35;;;;;;;11.43;3.47;;;14.60;67.00;;;17.62;46.41;101913.59;5053645;28;20194;-65
2023/06/02 01:26:08;;;;;;;13.30;3.80;;;14.60;67.20;;;17.59;45.93;101914.78;5053857;28;20304;-66
2023/06/02 01:28:36;;;;;;;8.30;3.33;;;14.60;67.40;;;17.53;46.49;101912.09;5053016;28;20606;-66
2023/06/02 01:31:13;;;;;;;8.90;3.30;;;14.50;67.30;;;17.47;46.42;101896.84;5052525;28;20273;-65
2023/06/02 01:33:47;;;;;;;11.00;3.67;;;14.50;67.50;;;17.42;46.91;101905.38;5053707;28;20266;-66
2023/06/02 01:36:17;;;;;;;14.70;4.07;;;14.50;67.70;;;17.41;46.96;101894.94;5053793;28;20691;-66
2023/06/02 01:38:48;;;;;;;9.63;3.87;;;14.40;67.80;;;17.38;47.02;101890.81;5053709;28;20190;-65
2023/06/02 01:41:20;;;;;;;10.37;4.10;;;14.40;68.10;;;17.36;47.19;101895.50;5053910;28;20681;-66
2023/06/02 01:43:48;;;;;;;10.67;3.30;;;14.40;68.30;;;17.36;47.17;101887.53;5053277;28;20178;-65
2023/06/02 01:46:16;;;;;;;9.73;3.83;;;14.40;68.30;;;17.37;47.31;101889.19;5053724;28;20300;-65
2023/06/02 01:48:43;;;;;;;15.10;3.67;;;14.40;68.60;;;17.35;47.22;101899.19;5041411;28;20297;-64
2023/06/02 01:51:10;;;;;;;11.37;3.40;;;14.40;68.60;;;17.35;47.36;101899.19;5033497;28;20273;-65
2023/06/02 01:53:37;;;;;;;9.63;3.40;;;14.40;68.80;;;17.37;47.58;101902.50;5033299;28;20226;-66
2023/06/02 01:56:05;;;;;;;13.33;4.70;;;14.40;69.00;;;17.39;47.46;101911.09;5044863;28;20272;-65
2023/06/02 01:58:34;;;;;;;7.80;3.53;;;14.40;69.00;;;17.40;47.38;101911.94;5053669;28;20189;-65
2023/06/02 02:01:01;;;;;;;12.43;3.70;;;14.40;69.00;;;17.41;47.49;101919.72;5053703;28;20193;-65
2023/06/02 02:03:29;;;;;;;8.77;3.00;;;14.40;69.10;;;17.40;47.51;101912.75;5050940;28;20619;-66
2023/06/02 02:05:56;;;;;;;11.33;3.90;;;14.40;69.10;;;17.39;47.42;101916.44;5038820;28;20226;-66
2023/06/02 02:08:23;;;;;;;7.97;3.40;;;14.40;69.20;;;17.35;47.68;101915.16;5033113;28;20288;-69
2023/06/02 02:10:51;;;;;;;7.77;4.17;;;14.40;69.30;;;17.34;47.42;101918.84;5042908;28;20674;-66
2023/06/02 02:13:17;;;;;;;9.40;4.00;;;14.40;69.50;;;17.33;47.98;101905.72;5053320;28;20606;-65
2023/06/02 02:15:46;;;;;;;13.23;3.63;;;14.30;69.60;;;17.35;48.15;101920.47;5037198;28;20717;-66
2023/06/02 02:18:15;;;;;;;21.73;3.67;;;14.30;69.70;;;17.36;48.19;101911.47;5033340;28;20725;-64
2023/06/02 02:20:42;;;;;;;14.70;3.93;;;14.30;69.80;;;17.38;48.00;101914.78;5033913;28;20222;-65
2023/06/02 02:23:09;;;;;;;10.37;3.57;;;14.40;69.90;;;17.39;47.87;101916.44;5033998;28;20217;-65
2023/06/02 02:25:36;;;;;;;13.70;4.30;;;14.30;69.80;;;17.40;48.05;101918.06;5039575;28;20623;-65
2023/06/02 02:28:03;;;;;;;10.60;4.07;;;14.40;70.00;;;17.41;48.25;101917.06;5053121;28;20600;-66
2023/06/02 02:30:30;;;;;;;8.90;4.10;;;14.40;70.00;;;17.41;47.99;101917.06;5052924;28;20217;-66
2023/06/02 02:33:01;;;;;;;11.63;4.07;;;14.40;69.90;;;17.41;48.08;101908.25;5052985;28;20277;-65
2023/06/02 02:35:29;;;;;;;13.67;4.50;;;14.40;69.90;;;17.42;48.16;101905.38;5053132;28;20221;-67
2023/06/02 02:37:55;;;;;;;10.90;4.20;;;14.40;70.10;;;17.45;48.24;101910.34;5051670;28;20190;-65
2023/06/02 02:40:23;;;;;;;9.40;3.70;;;14.40;70.10;;;17.51;48.23;101909.63;5057203;28;20185;-69
2023/06/02 02:42:50;;;;;;;13.80;4.57;;;14.50;70.00;;;17.55;47.98;101910.88;5056950;28;20236;-65
2023/06/02 02:45:17;;;;;;;10.77;4.10;;;14.50;69.80;;;17.59;48.18;101916.63;5057413;28;20323;-65
2023/06/02 02:47:44;;;;;;;10.60;3.97;;;14.50;69.80;;;17.61;47.94;101919.13;5056683;28;20228;-66
2023/06/02 02:50:12;;;;;;;17.83;4.80;;;14.60;70.00;;;17.65;47.82;101920.38;5056731;28;20218;-65
2023/06/02 02:52:39;;;;;;;16.50;4.73;;;14.60;69.80;;;17.67;47.89;101918.34;5056829;28;20194;-65
2023/06/02 02:55:07;;;;;;;12.43;3.83;;;14.60;69.80;;;17.65;47.90;101920.38;5056019;28;20226;-65
2023/06/02 02:57:34;;;;;;;7.30;3.77;;;14.60;69.80;;;17.65;47.76;101915.06;5056866;28;20273;-68
2023/06/02 03:00:01;;;;;;;9.27;3.70;;;14.60;69.70;;;17.62;48.11;101910.09;5044163;28;20203;-66
2023/06/02 03:02:28;;;;;;;17.57;4.87;;;14.60;69.70;;;17.62;48.21;101918.09;5053180;28;20193;-65
2023/06/02 03:04:56;;;;;;;15.47;4.53;;;14.60;69.80;;;17.62;48.28;101910.94;5056346;28;20218;-65
2023/06/02 03:07:24;;;;;;;12.23;4.27;;;14.60;69.90;;;17.63;48.24;101912.59;5054888;28;20194;-67
2023/06/02 03:09:52;;;;;;;13.07;5.13;;;14.60;69.90;;;17.63;48.00;101911.75;5055940;28;20217;-65
2023/06/02 03:12:19;;;;;;;14.10;4.63;;;14.60;69.90;;;17.63;48.23;101909.09;5056358;28;20272;-66
2023/06/02 03:14:46;;;;;;;11.00;3.87;;;14.60;70.20;;;17.66;48.22;101916.72;5047558;28;20618;-67
2023/06/02 03:17:13;;;;;;;12.63;4.03;;;14.60;70.20;;;17.64;48.12;101914.22;5036335;28;20187;-65
2023/06/02 03:19:40;;;;;;;13.30;4.43;;;14.60;70.30;;;17.64;48.27;101913.41;5036758;28;20218;-64
2023/06/02 03:22:07;;;;;;;18.90;4.93;;;14.60;70.20;;;17.63;48.34;101917.09;5036398;28;20197;-66
2023/06/02 03:24:36;;;;;;;14.37;4.67;;;14.60;70.50;;;17.63;48.18;101917.09;5044730;28;20221;-66
2023/06/02 03:27:03;;;;;;;13.37;4.10;;;14.60;70.60;;;17.62;48.59;101920.75;5056393;28;20268;-64
2023/06/02 03:29:30;;;;;;;10.20;4.40;;;14.60;70.80;;;17.58;48.47;101931.81;5056301;28;20292;-65
2023/06/02 03:31:58;;;;;;;13.07;4.07;;;14.60;70.90;;;17.56;48.55;101923.19;5055978;28;20204;-65
2023/06/02 03:34:25;;;;;;;12.77;3.97;;;14.50;70.90;;;17.53;48.87;101923.56;5055632;28;20229;-70
2023/06/02 03:36:52;;;;;;;13.03;4.00;;;14.50;71.20;;;17.56;49.03;101928.50;5056438;28;20186;-66
2023/06/02 03:39:19;;;;;;;16.13;4.67;;;14.50;71.40;;;17.58;48.93;101921.16;5043989;28;20207;-65
2023/06/02 03:41:48;;;;;;;14.90;4.67;;;14.50;71.50;;;17.57;48.97;101930.16;5051702;28;20285;-65
2023/06/02 03:44:15;;;;;;;16.17;4.97;;;14.50;71.50;;;17.57;49.05;101930.16;5055627;28;20323;-65
2023/06/02 03:46:42;;;;;;;8.63;3.83;;;14.50;71.60;;;17.59;49.13;101936.09;5055515;28;20208;-65
2023/06/02 03:49:09;;;;;;;11.47;4.37;;;14.50;71.80;;;17.64;49.05;101937.38;5055679;28;20224;-64
2023/06/02 03:51:36;;;;;;;10.47;3.93;;;14.60;72.10;;;17.69;49.29;101927.78;5053498;28;20280;-65
2023/06/02 03:54:03;;;;;;;14.60;4.50;;;14.60;72.20;;;17.72;48.98;101932.75;5054523;28;20198;-66
2023/06/02 03:56:30;;;;;;;13.37;4.63;;;14.60;71.90;;;17.74;49.13;101935.19;5055655;28;20292;-66
2023/06/02 03:58:59;;;;;;;11.70;4.43;;;14.70;72.00;;;17.72;48.96;101929.25;5055592;28;20213;-66
2023/06/02 04:01:26;;;;;;;12.47;4.87;;;14.70;72.20;;;17.72;49.19;101937.22;5055699;28;20228;-65
2023/06/02 04:03:53;;;;;;;13.23;4.40;;;14.60;72.10;;;17.76;49.40;101938.53;5055019;28;20190;-65
2023/06/02 04:06:21;;;;;;;15.63;4.43;;;14.70;72.20;;;17.81;49.10;101941.41;5053760;28;20225;-66
2023/06/02 04:08:48;;;;;;;13.93;4.47;;;14.70;72.20;;;17.84;48.99;101935.69;5054472;28;20772;-64
2023/06/02 04:11:15;;;;;;;12.83;4.17;;;14.70;72.10;;;17.87;48.93;101935.31;5054995;28;20359;-66
2023/06/02 04:13:42;;;;;;;14.90;4.10;;;14.70;72.00;;;17.89;48.90;101933.28;5054974;28;20186;-66
2023/06/02 04:16:10;;;;;;;9.73;4.10;;;14.80;72.00;;;17.88;48.91;101934.28;5034815;28;20646;-65
2023/06/02 04:18:39;;;;;;;10.67;4.03;;;14.80;72.00;;;17.87;48.88;101930.00;5035328;28;20190;-65
2023/06/02 04:21:06;;;;;;;14.27;4.23;;;14.80;72.10;;;17.87;48.88;101935.31;5035486;28;20197;-65
2023/06/02 04:23:33;;;;;;;10.67;4.27;;;14.80;72.10;;;17.84;49.06;101938.38;5054544;28;20281;-66
2023/06/02 04:26:00;;;;;;;18.40;4.83;;;14.80;72.10;;;17.83;49.04;101939.41;5054419;28;20312;-66
2023/06/02 04:28:28;;;;;;;17.83;5.30;;;14.80;72.10;;;17.84;48.92;101946.34;5054597;28;20229;-64
2023/06/02 04:30:59;;;;;;;14.23;4.73;;;14.80;72.20;;;17.87;49.23;101945.97;5055055;28;20293;-66
2023/06/02 04:33:28;;;;;;;12.97;4.87;;;14.80;72.30;;;17.90;49.29;101940.28;5054687;28;20212;-64
2023/06/02 04:35:56;;;;;;;10.67;4.27;;;14.80;72.40;;;17.92;49.14;101948.91;5049145;28;20300;-64
2023/06/02 04:38:23;;;;;;;14.53;4.53;;;14.80;72.40;;;17.96;49.16;101944.81;5034658;28;20214;-66
2023/06/02 04:40:51;;;;;;;23.00;5.13;;;14.80;72.50;;;17.98;49.25;101948.94;5042988;28;20240;-64
2023/06/02 04:43:18;;;;;;;16.80;5.03;;;14.80;72.50;;;18.01;49.35;101953.06;5050480;28;20201;-65
2023/06/02 04:45:47;;;;;;;16.53;4.70;;;14.90;72.80;;;18.03;49.23;101956.34;5034376;28;20218;-65
2023/06/02 04:48:14;;;;;;;18.80;5.33;;;14.90;72.70;;;18.05;49.31;101954.31;5033738;28;20534;-65
2023/06/02 04:50:42;;;;;;;11.87;4.63;;;14.90;72.90;;;18.07;49.17;101958.44;5042260;28;20336;-65
2023/06/02 04:53:09;;;;;;;16.17;4.63;;;14.90;72.70;;;18.11;49.31;101965.00;5036011;28;20290;-65
2023/06/02 04:55:36;;;;;;;14.47;4.97;;;14.90;72.70;;;18.15;49.37;101966.28;5041432;28;20320;-64
2023/06/02 04:58:04;;;;;;;15.67;4.87;;;15.00;72.80;;;18.21;49.38;101964.69;5053830;28;20273;-65
2023/06/02 05:00:31;;;;;;;11.90;5.10;;;15.10;72.80;;;18.21;49.14;101970.00;5054283;28;20277;-66
2023/06/02 05:02:58;;;;;;;13.60;4.80;;;15.10;72.60;;;18.19;49.21;101972.03;5053152;28;20192;-65
2023/06/02 05:05:25;;;;;;;13.23;5.37;;;15.10;72.50;;;18.20;49.35;101969.22;5041792;28;20691;-65
2023/06/02 05:07:53;;;;;;;12.77;4.43;;;15.10;72.60;;;18.22;49.42;101974.34;5033784;28;20281;-66
2023/06/02 05:10:20;;;;;;;12.57;5.43;;;15.20;72.70;;;18.23;49.52;101962.66;5037794;28;20253;-65
2023/06/02 05:12:47;;;;;;;13.87;4.93;;;15.20;72.90;;;18.26;49.53;101972.91;5053976;28;20225;-66
2023/06/02 05:15:16;;;;;;;18.03;4.53;;;15.20;72.90;;;18.29;49.55;101967.22;5041571;28;20214;-66
2023/06/02 05:17:43;;;;;;;15.67;4.50;;;15.20;73.00;;;18.32;49.52;101976.66;5033833;28;20194;-63
2023/06/02 05:20:11;;;;;;;18.13;5.40;;;15.30;72.80;;;18.34;49.38;101980.78;5048167;28;20206;-66
2023/06/02 05:22:38;;;;;;;13.17;5.23;;;15.30;72.90;;;18.37;49.48;101976.91;5053632;28;20554;-65
2023/06/02 05:25:08;;;;;;;15.17;5.10;;;15.30;73.00;;;18.41;49.63;101976.31;5053164;28;20275;-65
2023/06/02 05:27:38;;;;;;;12.73;5.50;;;15.30;73.10;;;18.47;49.51;101980.09;5053358;28;20190;-66
2023/06/02 05:30:07;;;;;;;17.30;4.60;;;15.40;73.10;;;18.50;49.63;101969.84;5053552;28;20625;-67
2023/06/02 05:32:34;;;;;;;10.13;4.47;;;15.40;73.20;;;18.52;49.51;101973.13;5054060;28;20190;-66
2023/06/02 05:35:01;;;;;;;14.50;6.00;;;15.50;73.10;;;18.52;49.51;101973.13;5034285;28;20576;-65
2023/06/02 05:37:28;;;;;;;15.90;5.80;;;15.50;73.20;;;18.53;49.67;101974.78;5033452;28;20209;-69
2023/06/02 05:39:55;;;;;;;22.67;6.20;;;15.50;73.20;;;18.54;49.80;101981.75;5033491;28;20663;-67
2023/06/02 05:42:24;;;;;;;17.37;6.13;;;15.50;73.60;;;18.58;49.91;101985.69;5053016;28;20601;-66
2023/06/02 05:44:52;;;;;;;15.67;6.10;;;15.50;74.20;;;18.64;50.01;101976.88;5051700;28;20209;-67
2023/06/02 05:47:19;;;;;;;15.97;5.43;;;15.50;74.40;;;18.72;49.94;101976.75;5052820;28;20273;-66
2023/06/02 05:49:46;;;;;;;22.47;7.03;;;15.60;74.30;;;18.82;49.79;101974.53;5051980;28;20289;-65
2023/06/02 05:52:13;;;;;;;16.67;5.83;;;15.60;74.40;;;18.99;49.77;101974.19;5052763;28;20194;-67
2023/06/02 05:54:40;;;;;;;19.70;6.20;;;15.70;74.70;;;19.13;49.87;101986.56;5052527;28;20268;-66
2023/06/02 05:57:07;;;;;;;17.37;7.20;;;15.80;74.70;;;19.28;49.36;101989.91;5052647;28;20213;-65
2023/06/02 05:59:35;;;;;;;14.30;6.30;;;15.90;74.60;;;19.41;49.51;101979.28;5052938;28;20208;-65
2023/06/02 06:02:03;;;;;;;25.23;6.47;;;16.00;74.60;;;19.50;49.13;101994.09;5052023;28;20186;-67
2023/06/02 06:04:30;;;;;;;14.13;5.43;;;16.10;74.40;;;19.58;49.40;101996.59;5039480;28;20215;-67
2023/06/02 06:06:58;;;;;;;11.50;5.73;;;16.20;74.30;;;19.68;49.17;101990.84;5033230;28;20248;-65
2023/06/02 06:09:25;;;;;;;17.97;6.40;;;16.30;74.00;;;19.81;49.06;101996.19;5032868;28;20273;-66
2023/06/02 06:11:52;;;;;;;12.90;5.30;;;16.40;73.80;;;19.93;48.82;101999.91;5050574;28;20708;-68
2023/06/02 06:14:19;;;;;;;15.87;5.73;;;16.50;73.60;;;19.99;48.83;101993.78;5052632;28;20269;-67
2023/06/02 06:16:48;;;;;;;19.60;5.97;;;16.60;73.30;;;20.00;48.75;102006.91;5047549;28;20221;-67
2023/06/02 06:19:15;;;;;;;14.97;5.20;;;16.70;73.20;;;20.00;48.54;102006.09;5061183;28;20558;-67
2023/06/02 06:21:42;;;;;;;18.33;9.00;;;16.70;72.90;;;20.01;48.59;101997.06;5059618;28;20585;-67
2023/06/02 06:24:09;;;;;;;14.10;5.50;;;16.80;72.70;;;20.00;48.57;102004.25;5058736;28;20247;-67
2023/06/02 06:26:36;;;;;;;19.03;5.23;;;16.80;72.50;;;20.01;48.50;101997.88;5059380;28;20202;-65
2023/06/02 06:29:03;;;;;;;14.60;5.17;;;16.90;72.40;;;20.01;48.27;101995.22;5059564;28;20190;-67
2023/06/02 06:31:32;;;;;;;15.93;5.00;;;16.90;72.40;;;20.06;48.24;101994.59;5048602;28;20249;-66
2023/06/02 06:34:00;;;;;;;13.77;4.80;;;16.90;72.40;;;20.17;48.51;101992.13;5038370;28;20194;-67
2023/06/02 06:36:27;;;;;;;14.23;4.63;;;17.00;72.40;;;20.21;48.56;101998.69;5043166;28;20650;-67
2023/06/02 06:38:55;;;;;;;13.43;5.27;;;17.00;72.30;;;20.23;48.49;101996.66;5059637;28;20272;-66
2023/06/02 06:41:22;;;;;;;11.70;5.67;;;17.10;72.20;;;20.30;47.93;102002.00;5059317;28;20194;-67
2023/06/02 06:43:49;;;;;;;17.80;5.57;;;17.20;72.00;;;20.32;48.23;101999.13;5059049;28;20194;-69
2023/06/02 06:46:16;;;;;;;13.57;6.27;;;17.20;71.70;;;20.37;47.82;102010.03;5058472;28;20224;-66
2023/06/02 06:48:43;;;;;;;15.73;4.63;;;17.30;71.50;;;20.47;47.67;102015.75;5058864;28;20296;-67
2023/06/02 06:51:12;;;;;;;15.13;5.93;;;17.40;71.50;;;20.54;47.12;102011.25;5058859;28;20241;-67
2023/06/02 06:53:39;;;;;;;11.30;4.50;;;17.50;70.70;;;20.60;47.34;102008.56;5058923;28;20190;-66
2023/06/02 06:56:07;;;;;;;12.20;4.60;;;17.50;70.50;;;20.73;46.94;102013.03;5058878;28;20328;-66
2023/06/02 06:58:34;;;;;;;12.00;5.17;;;17.60;70.50;;;20.84;47.15;102007.03;5058579;28;20255;-66
2023/06/02 07:01:02;;;;;;;15.10;4.53;;;17.70;70.10;;;20.94;46.97;102004.75;5045916;28;20194;-66
2023/06/02 07:03:29;;;;;;;11.97;4.80;;;17.80;70.10;;;21.03;46.46;102008.00;5058743;28;20284;-67
2023/06/02 07:05:57;;;;;;;11.07;4.90;;;17.80;69.80;;;21.12;46.13;102018.31;5059631;28;20210;-66
2023/06/02 07:08:25;;;;;;;10.03;3.97;;;17.90;69.80;;;21.28;45.85;102012.44;5059037;28;20305;-65
2023/06/02 07:10:52;;;;;;;10.67;4.07;;;18.00;69.60;;;21.43;45.39;102013.00;5058445;28;20253;-65
2023/06/02 07:13:19;;;;;;;10.63;3.90;;;18.10;69.30;;;21.48;45.29;102009.69;5057828;28;20192;-67
2023/06/02 07:15:46;;;;;;;10.83;4.07;;;18.20;68.60;;;21.32;45.16;102019.00;5057156;28;20562;-65
2023/06/02 07:18:13;;;;;;;8.33;3.67;;;18.20;67.50;;;21.29;45.71;102014.09;5057693;28;20194;-64
2023/06/02 07:20:40;;;;;;;8.93;3.63;;;18.30;67.70;;;21.28;45.13;102012.44;5058148;28;20651;-66
2023/06/02 07:23:07;;;;;;;7.83;3.83;;;18.30;67.40;;;21.35;45.42;102018.59;5058753;28;20212;-67
2023/06/02 07:25:36;;;;;;;8.47;3.53;;;18.30;67.80;;;21.43;45.09;102018.34;5056387;28;20682;-66
2023/06/02 07:28:04;;;;;;;9.37;3.40;;;18.40;68.00;;;21.49;45.10;102024.69;5052137;28;20563;-66
2023/06/02 07:30:35;;;;;;;11.00;3.97;;;18.40;67.70;;;21.53;45.08;102026.75;5035714;28;20210;-66
2023/06/02 07:33:02;;;;;;;8.83;3.50;;;18.50;67.50;;;21.67;44.93;102026.66;5041871;28;20201;-66
2023/06/02 07:35:29;;;;;;;7.07;3.17;;;18.50;67.40;;;21.85;44.58;102029.44;5055177;28;20213;-66
2023/06/02 07:37:56;;;;;;;19.73;13.63;;;18.60;67.40;;;22.01;44.01;102023.59;5055629;28;20224;-66
2023/06/02 07:40:23;;;;;;;11.77;5.03;;;18.70;67.30;;;22.15;44.05;102030.50;5055491;28;20251;-66
2023/06/02 07:42:52;;;;;;;7.33;3.77;;;18.80;66.10;;;22.22;43.59;102020.53;5053979;28;20210;-65
2023/06/02 07:45:18;;;;;;;5.57;2.97;;;18.90;65.50;;;22.31;43.86;102023.72;5055272;28;20218;-65
2023/06/02 07:47:46;;;;;;;8.47;3.77;;;19.00;66.60;;;22.40;42.92;102017.03;5055387;28;20190;-65
2023/06/02 07:50:14;;;;;;;9.97;3.43;;;19.20;65.10;;;22.34;42.27;102018.75;5054852;28;20224;-65
2023/06/02 07:52:41;;;;;;;9.23;3.50;;;19.20;63.10;;;22.33;42.39;102019.78;5055234;28;20197;-69
2023/06/02 07:55:09;;;;;;;8.27;3.73;;;19.30;62.80;;;22.37;41.98;102026.34;5054467;28;20288;-65
2023/06/02 07:57:36;;;;;;;8.60;3.93;;;19.40;62.50;;;22.40;42.00;102017.88;5044538;28;20206;-66
2023/06/02 08:00:17;;;;;;;6.30;3.20;;;19.40;62.60;;;22.49;41.40;102015.72;5033970;28;20203;-65
2023/06/02 08:02:49;;;;;;;9.80;3.37;;;19.50;61.10;;;22.58;41.45;102012.50;5053164;28;20650;-65
2023/06/02 08:05:17;;;;;;;7.80;4.40;;;19.50;61.50;;;22.69;41.60;102005.63;5054446;28;20574;-66
2023/06/02 08:07:45;;;;;;;9.17;3.73;;;19.60;62.10;;;22.80;40.87;102019.13;5054628;28;20186;-66
2023/06/02 08:10:12;;;;;;;9.43;3.90;;;19.70;60.90;;;23.23;40.25;102024.41;5054355;28;20222;-65
2023/06/02 08:12:39;;;;;;;4.07;2.90;;;19.80;60.30;;;24.13;39.14;102017.94;5053949;28;20240;-69
2023/06/02 08:15:08;;;;;;;4.73;3.17;;;20.10;59.90;;;25.46;37.11;102021.41;5053867;28;20709;-68
2023/06/02 08:17:36;;;;;;;9.43;2.87;;;20.50;59.30;;;26.93;34.62;102015.66;5055122;28;20254;-66
2023/06/02 08:20:06;;;;;;;8.07;4.60;;;21.20;58.60;;;28.29;31.88;102014.31;5054666;28;20190;-65
2023/06/02 08:22:34;;;;;;;9.17;4.90;;;22.00;56.60;;;29.63;31.21;102020.59;5055906;28;20195;-66
2023/06/02 08:25:02;;;;;;;6.00;3.63;;;22.90;55.70;;;30.90;28.35;102016.66;5054223;28;20608;-66
2023/06/02 08:27:30;;;;;;;4.50;2.50;;;23.70;53.60;;;31.16;27.76;102017.34;5054662;28;20259;-66
2023/06/02 08:29:57;;;;;;;4.53;2.57;;;24.60;52.00;;;31.68;27.76;102016.75;5041401;28;20202;-65
2023/06/02 08:32:24;;;;;;;5.17;2.60;;;25.20;49.20;;;31.80;26.77;102018.03;5035030;28;20218;-65
2023/06/02 08:35:01;;;;;;;4.63;2.70;;;25.60;46.80;;;31.59;27.46;102010.31;5034287;28;20297;-65
2023/06/02 08:37:31;;;;;;;9.37;3.27;;;26.00;46.60;;;31.33;26.56;102017.81;5033369;28;20599;-66
2023/06/02 08:39:59;;;;;;;3.50;2.10;;;26.10;43.80;;;30.77;26.36;102012.59;5037355;28;20599;-65
2023/06/02 08:42:26;;;;;;;8.10;2.40;;;26.00;42.00;;;30.02;27.21;102020.91;5053575;28;20572;-65
2023/06/02 08:44:53;;;;;;;4.30;2.50;;;25.90;42.10;;;29.38;28.49;102029.50;5053519;28;20250;-66
2023/06/02 08:47:28;;;;;;;6.40;1.93;;;25.60;42.70;;;28.81;28.36;102020.59;5054856;28;20297;-66
2023/06/02 08:50:02;;;;;;;7.33;4.77;;;25.30;42.70;;;28.92;28.75;102024.97;5054656;28;20184;-67
2023/06/02 08:52:34;;;;;;;6.17;2.70;;;25.00;43.70;;;29.31;28.86;102028.94;5055051;28;20218;-68
2023/06/02 08:55:03;;;;;;;5.93;2.57;;;24.80;44.80;;;29.21;28.77;102023.50;5053204;28;20233;-66
2023/06/02 08:57:30;;;;;;;4.83;2.60;;;24.80;45.50;;;28.98;29.54;102028.53;5046075;28;20240;-66
2023/06/02 08:59:58;;;;;;;5.63;2.50;;;24.80;45.60;;;28.59;29.63;102020.75;5034065;28;20278;-67
2023/06/02 09:02:25;;;;;;;4.97;2.73;;;24.70;45.50;;;28.05;30.14;102020.09;5047291;28;20186;-65
2023/06/02 09:04:52;;;;;;;5.90;2.23;;;24.50;45.60;;;28.58;30.27;102021.81;5052636;28;20221;-66
2023/06/02 09:07:20;;;;;;;5.10;2.37;;;24.40;46.60;;;29.81;28.64;102019.28;5052910;28;20228;-66
2023/06/02 09:09:51;;;;;;;7.03;3.47;;;24.50;46.70;;;31.20;27.36;102021.13;5033527;28;20233;-66
2023/06/02 09:12:19;;;;;;;6.97;2.33;;;25.00;47.10;;;32.45;25.39;102018.53;5033193;28;20659;-65
2023/06/02 09:14:47;;;;;;;4.60;2.37;;;25.60;45.00;;;32.50;25.00;102023.94;5047215;28;20210;-65
2023/06/02 09:17:26;;;;;;;5.67;2.17;;;26.10;42.80;;;32.02;24.04;102025.78;5052973;28;20197;-65
2023/06/02 09:19:57;;;;;;;6.20;2.77;;;26.40;39.30;;;31.56;24.15;102019.84;5054011;28;20236;-66
2023/06/02 09:22:26;;;;;;;3.37;1.83;;;26.40;37.90;;;32.08;23.32;102020.00;5054592;28;20182;-66
2023/06/02 09:24:54;;;;;;;4.43;2.00;;;26.60;38.40;;;31.89;24.37;102026.41;5044112;28;20218;-66
2023/06/02 09:27:21;;;;;;;7.23;3.20;;;26.80;38.80;;;31.32;25.25;102027.88;5034281;28;20190;-65
2023/06/02 09:29:48;;;;;;;4.10;2.57;;;26.80;38.90;;;30.60;25.54;102031.16;5033792;28;20293;-65
2023/06/02 09:32:18;;;;;;;4.10;2.70;;;26.60;38.50;;;30.64;25.91;102032.22;5035307;28;20211;-66
2023/06/02 09:34:45;;;;;;;3.80;2.30;;;26.40;39.10;;;31.28;25.82;102034.16;5036187;28;20210;-65
2023/06/02 09:37:15;;;;;;;10.07;3.20;;;26.40;39.90;;;31.72;25.06;102042.31;5036658;28;20198;-65
2023/06/02 09:39:46;;;;;;;5.00;2.63;;;26.50;40.10;;;31.89;24.95;102037.28;5050134;28;20317;-66
2023/06/02 09:42:14;;;;;;;5.10;2.30;;;26.60;40.20;;;31.54;25.13;102046.56;5040099;28;20404;-65
2023/06/02 09:45:03;;;;;;;4.53;2.50;;;26.70;39.90;;;30.59;25.88;102034.97;5036275;28;20260;-63
2023/06/02 09:47:38;;;;;;;9.57;4.90;;;26.60;39.20;;;29.75;26.94;102052.91;5047704;28;20240;-66
2023/06/02 09:50:07;;;;;;;3.37;2.10;;;26.30;39.50;;;28.98;27.66;102048.31;5050078;28;20660;-67
2023/06/02 09:52:34;;;;;;;6.60;3.30;;;25.90;40.10;;;28.29;28.82;102052.25;5055334;28;20214;-66
2023/06/02 09:55:08;;;;;;;8.20;7.23;;;25.50;41.00;;;27.72;29.79;102052.78;5058740;28;20300;-67
2023/06/02 09:57:36;;;;;;;4.87;3.63;;;25.10;42.00;;;27.38;30.38;102051.38;5055700;28;20277;-67
2023/06/02 10:00:05;;;;;;;9.13;5.40;;;24.70;43.00;;;27.24;31.17;102052.81;5060601;28;20197;-65
2023/06/02 10:02:33;;;;;;;6.70;2.97;;;24.40;44.10;;;27.84;30.48;102052.63;5053328;28;20239;-65
2023/06/02 10:05:04;;;;;;;4.63;2.80;;;24.20;45.40;;;29.04;29.47;102049.16;5051859;28;20236;-65
2023/06/02 10:07:51;;;;;;;4.13;2.47;;;24.30;46.00;;;29.06;28.73;102047.81;5052096;28;20734;-67
2023/06/02 10:10:38;;;;;;;5.60;2.20;;;24.50;45.20;;;28.58;29.41;102051.63;5052002;28;20209;-67
2023/06/02 10:13:33;;;;;;;6.87;3.77;;;24.60;45.00;;;27.91;30.72;102045.94;5038673;28;20258;-66